createdAt,value
2022-09-23T00:01:11.575Z,8.87
2022-09-23T00:03:41.830Z,7.77
2022-09-23T00:06:17.603Z,9.23
2022-09-23T00:08:44.551Z,10.37
2022-09-23T00:11:15.389Z,10.17
2022-09-23T00:13:44.254Z,10.13
2022-09-23T00:16:38.945Z,10.43
2022-09-23T00:19:06.502Z,12.40
2022-09-23T00:21:33.410Z,11.37
2022-09-23T00:24:00.323Z,11.10
2022-09-23T00:26:30.022Z,13.03
2022-09-23T00:28:56.813Z,14.60
2022-09-23T00:31:26.206Z,15.43
2022-09-23T00:33:58.161Z,12.67
2022-09-23T00:36:25.904Z,12.47
2022-09-23T00:38:53.933Z,13.27
2022-09-23T00:41:21.374Z,11.30
2022-09-23T00:43:57.534Z,10.93
2022-09-23T00:46:39.864Z,11.77
2022-09-23T00:49:12.487Z,12.90
2022-09-23T00:51:54.513Z,10.97
2022-09-23T00:54:24.540Z,10.00
2022-09-23T00:56:52.287Z,9.43
2022-09-23T00:59:20.730Z,11.27
2022-09-23T01:01:54.715Z,10.83
2022-09-23T01:04:24.658Z,10.43
2022-09-23T01:06:51.407Z,11.40
2022-09-23T01:09:18.514Z,11.03
2022-09-23T01:12:11.959Z,10.17
2022-09-23T01:15:55.582Z,9.10
2022-09-23T01:18:34.376Z,11.60
2022-09-23T01:21:22.504Z,10.57
2022-09-23T01:24:19.848Z,12.33
2022-09-23T01:27:00.005Z,10.90
2022-09-23T01:29:48.014Z,8.83
2022-09-23T01:32:54.243Z,10.93
2022-09-23T01:35:30.443Z,10.40
2022-09-23T01:38:16.318Z,14.10
2022-09-23T01:41:46.767Z,10.90
2022-09-23T01:44:34.922Z,11.03
2022-09-23T01:47:14.693Z,10.87
2022-09-23T01:50:01.193Z,12.77
2022-09-23T01:52:37.141Z,10.37
2022-09-23T01:55:26.990Z,11.60
2022-09-23T01:58:05.005Z,11.17
2022-09-23T02:00:49.762Z,10.47
2022-09-23T02:03:26.875Z,12.03
2022-09-23T02:06:02.142Z,13.23
2022-09-23T02:08:41.818Z,10.70
2022-09-23T02:11:18.441Z,9.70
2022-09-23T02:14:03.178Z,9.60
2022-09-23T02:16:42.451Z,9.90
2022-09-23T02:19:42.050Z,10.37
2022-09-23T02:22:18.204Z,12.27
2022-09-23T02:24:45.327Z,9.87
2022-09-23T02:27:46.652Z,11.07
2022-09-23T02:33:08.549Z,10.87
2022-09-23T02:35:54.217Z,13.63
2022-09-23T02:38:40.435Z,13.33
2022-09-23T02:41:09.834Z,11.47
2022-09-23T02:43:48.729Z,12.13
2022-09-23T02:46:16.660Z,10.77
2022-09-23T02:48:48.542Z,14.07
2022-09-23T02:51:15.804Z,12.00
2022-09-23T02:53:46.776Z,12.77
2022-09-23T02:56:20.410Z,12.30
2022-09-23T02:58:54.177Z,12.13
2022-09-23T03:01:58.798Z,13.30
2022-09-23T03:04:54.427Z,15.80
2022-09-23T03:07:33.479Z,12.17
2022-09-23T03:10:26.343Z,12.13
2022-09-23T03:13:25.115Z,14.40
2022-09-23T03:16:08.710Z,11.90
2022-09-23T03:18:53.626Z,13.60
2022-09-23T03:21:35.097Z,14.40
2022-09-23T03:24:07.463Z,13.97
2022-09-23T03:26:38.951Z,17.47
2022-09-23T03:29:11.673Z,16.70
2022-09-23T03:31:40.205Z,13.87
2022-09-23T03:34:17.907Z,14.27
2022-09-23T03:36:59.286Z,14.43
2022-09-23T03:39:40.192Z,15.93
2022-09-23T03:42:30.626Z,13.20
2022-09-23T03:44:58.300Z,15.40
2022-09-23T03:47:37.822Z,13.37
2022-09-23T03:50:05.701Z,14.17
2022-09-23T03:52:32.668Z,14.73
2022-09-23T03:55:56.210Z,14.87
2022-09-23T03:58:23.087Z,13.57
2022-09-23T04:00:50.047Z,15.13
2022-09-23T04:03:19.285Z,14.30
2022-09-23T04:05:46.393Z,14.20
2022-09-23T04:08:20.144Z,15.10
2022-09-23T04:10:49.052Z,14.87
2022-09-23T04:13:18.478Z,13.80
2022-09-23T04:15:49.710Z,14.80
2022-09-23T04:18:17.853Z,13.37
2022-09-23T04:20:48.308Z,12.80
2022-09-23T04:23:15.474Z,13.73
2022-09-23T04:25:49.792Z,19.10
2022-09-23T04:28:16.947Z,13.57
2022-09-23T04:30:44.390Z,14.73
2022-09-23T04:33:12.306Z,15.93
2022-09-23T04:35:40.474Z,14.47
2022-09-23T04:38:14.364Z,15.20
2022-09-23T04:40:41.805Z,18.90
2022-09-23T04:43:13.325Z,15.70
2022-09-23T04:45:44.900Z,17.63
2022-09-23T04:48:13.931Z,16.50
2022-09-23T04:50:41.532Z,19.30
2022-09-23T04:53:08.366Z,18.63
2022-09-23T04:55:35.200Z,17.13
2022-09-23T04:58:02.083Z,17.47
2022-09-23T05:00:29.320Z,19.23
2022-09-23T05:02:56.273Z,18.30
2022-09-23T05:05:23.720Z,21.40
2022-09-23T05:07:51.291Z,20.00
2022-09-23T05:10:18.693Z,21.13
2022-09-23T05:12:45.920Z,22.03
2022-09-23T05:15:16.407Z,22.17
2022-09-23T05:17:43.855Z,27.07
2022-09-23T05:20:11.636Z,31.33
2022-09-23T05:22:38.781Z,38.90
2022-09-23T05:25:06.201Z,31.90
2022-09-23T05:27:33.215Z,31.13
2022-09-23T05:30:03.367Z,35.13
2022-09-23T05:32:30.234Z,36.30
2022-09-23T05:34:57.485Z,32.87
2022-09-23T05:37:25.436Z,31.10
2022-09-23T05:39:52.551Z,31.87
2022-09-23T05:42:25.635Z,33.90
2022-09-23T05:44:52.665Z,33.53
2022-09-23T05:47:21.864Z,30.70
2022-09-23T05:49:59.640Z,32.03
2022-09-23T05:52:27.364Z,30.50
2022-09-23T05:54:54.360Z,30.17
2022-09-23T05:57:30.370Z,32.43
2022-09-23T05:59:57.484Z,29.87
2022-09-23T06:02:24.399Z,30.13
2022-09-23T06:04:51.398Z,30.30
2022-09-23T06:07:18.260Z,32.37
2022-09-23T06:09:45.571Z,30.53
2022-09-23T06:12:14.471Z,27.20
2022-09-23T06:14:41.441Z,30.90
2022-09-23T06:17:10.884Z,29.20
2022-09-23T06:19:37.831Z,33.43
2022-09-23T06:22:04.698Z,28.40
2022-09-23T06:24:32.243Z,29.03
2022-09-23T06:27:03.259Z,28.07
2022-09-23T06:29:33.269Z,30.10
2022-09-23T06:32:00.194Z,30.07
2022-09-23T06:34:27.062Z,27.60
2022-09-23T06:36:55.610Z,28.73
2022-09-23T06:39:23.025Z,29.17
2022-09-23T06:41:49.862Z,25.03
2022-09-23T06:44:16.690Z,26.73
2022-09-23T06:46:44.284Z,24.40
2022-09-23T06:49:12.400Z,26.55
2022-09-23T06:51:40.289Z,29.13
2022-09-23T06:54:07.903Z,25.47
2022-09-23T06:56:38.785Z,23.87
2022-09-23T06:59:10.581Z,25.52
2022-09-23T07:01:41.046Z,21.00
2022-09-23T07:04:10.230Z,19.43
2022-09-23T07:06:37.317Z,15.57
2022-09-23T07:09:06.533Z,18.00
2022-09-23T07:11:33.758Z,18.73
2022-09-23T07:14:00.639Z,16.57
2022-09-23T07:16:28.248Z,17.30
2022-09-23T07:18:55.427Z,18.93
2022-09-23T07:21:22.326Z,17.13
2022-09-23T07:23:52.719Z,18.30
2022-09-23T07:26:20.651Z,16.77
2022-09-23T07:28:47.768Z,18.33
2022-09-23T07:31:29.927Z,15.80
2022-09-23T07:34:04.627Z,19.00
2022-09-23T07:36:34.028Z,17.97
2022-09-23T07:39:03.614Z,14.93
2022-09-23T07:41:32.025Z,19.10
2022-09-23T07:44:00.598Z,16.67
2022-09-23T07:46:32.952Z,19.40
2022-09-23T07:49:00.639Z,18.70
2022-09-23T07:51:36.353Z,21.50
2022-09-23T07:54:10.078Z,16.97
2022-09-23T07:56:38.132Z,20.17
2022-09-23T07:59:08.927Z,18.87
2022-09-23T08:01:42.541Z,15.00
2022-09-23T08:04:18.787Z,15.37
2022-09-23T08:06:51.375Z,10.93
2022-09-23T08:09:19.956Z,11.77
2022-09-23T08:11:46.986Z,13.67
2022-09-23T08:14:15.241Z,11.70
2022-09-23T08:16:44.869Z,6.20
2022-09-23T08:19:12.813Z,5.43
2022-09-23T08:21:41.824Z,6.60
2022-09-23T08:24:15.555Z,6.67
2022-09-23T08:26:43.305Z,4.40
2022-09-23T08:29:13.277Z,4.67
2022-09-23T08:31:40.366Z,4.40
2022-09-23T08:34:08.169Z,4.07
2022-09-23T08:36:36.006Z,2.77
2022-09-23T08:39:03.743Z,2.73
2022-09-23T08:41:59.330Z,3.17
2022-09-23T08:44:30.226Z,3.90
2022-09-23T08:47:13.366Z,3.47
2022-09-23T08:49:48.190Z,2.70
2022-09-23T08:52:43.082Z,1.50
2022-09-23T08:55:15.025Z,2.40
2022-09-23T08:58:14.087Z,3.33
2022-09-23T09:00:42.151Z,2.67
2022-09-23T09:03:26.064Z,5.03
2022-09-23T09:05:55.119Z,1.37
2022-09-23T09:08:31.410Z,1.90
2022-09-23T09:10:59.082Z,2.03
2022-09-23T09:13:53.683Z,3.90
2022-09-23T09:16:59.369Z,3.00
2022-09-23T09:19:52.259Z,4.33
2022-09-23T09:25:24.179Z,2.23
2022-09-23T09:27:58.431Z,2.30
2022-09-23T09:30:25.675Z,1.77
2022-09-23T09:33:02.753Z,3.63
2022-09-23T09:36:01.485Z,4.03
2022-09-23T09:38:28.776Z,2.80
2022-09-23T09:41:02.862Z,5.43
2022-09-23T09:43:32.353Z,4.13
2022-09-23T09:46:17.859Z,3.40
2022-09-23T09:48:56.344Z,3.80
2022-09-23T09:51:26.309Z,3.60
2022-09-23T09:53:55.696Z,2.40
2022-09-23T09:56:33.171Z,5.03
2022-09-23T09:59:15.218Z,3.67
2022-09-23T10:01:42.570Z,2.80
2022-09-23T10:04:33.933Z,3.43
2022-09-23T10:07:13.159Z,2.67
2022-09-23T10:09:48.353Z,1.23
2022-09-23T10:12:21.542Z,2.70
2022-09-23T10:14:51.349Z,2.70
2022-09-23T10:17:34.147Z,2.00
2022-09-23T10:20:07.036Z,2.20
2022-09-23T10:22:39.104Z,2.43
2022-09-23T10:25:27.571Z,1.73
2022-09-23T10:27:54.580Z,2.23
2022-09-23T10:30:24.579Z,1.67
2022-09-23T10:32:55.044Z,1.70
2022-09-23T10:35:24.585Z,2.53
2022-09-23T10:37:59.951Z,1.77
2022-09-23T10:40:48.263Z,1.93
2022-09-23T10:44:04.306Z,2.43
2022-09-23T10:46:53.546Z,0.80
2022-09-23T10:49:44.625Z,3.43
2022-09-23T10:52:42.435Z,1.57
2022-09-23T10:55:33.338Z,2.67
2022-09-23T10:58:09.229Z,1.13
2022-09-23T11:01:37.687Z,1.67
2022-09-23T11:04:26.083Z,1.40
2022-09-23T11:07:14.170Z,0.90
2022-09-23T11:09:49.817Z,1.20
2022-09-23T11:12:38.333Z,1.77
2022-09-23T11:15:41.241Z,1.37
2022-09-23T11:19:02.248Z,1.40
2022-09-23T11:21:54.092Z,2.30
2022-09-23T11:24:50.259Z,2.50
2022-09-23T11:27:30.550Z,1.40
2022-09-23T11:30:16.850Z,2.47
2022-09-23T11:33:21.005Z,3.43
2022-09-23T11:36:02.187Z,1.90
2022-09-23T11:38:42.985Z,2.30
2022-09-23T11:41:25.935Z,1.17
2022-09-23T11:44:23.797Z,1.23
2022-09-23T11:47:21.841Z,1.00
2022-09-23T11:50:20.929Z,1.53
2022-09-23T11:53:02.454Z,1.47
2022-09-23T11:55:37.040Z,2.33
2022-09-23T11:58:24.406Z,1.20
2022-09-23T12:01:24.234Z,0.90
2022-09-23T12:04:12.159Z,2.50
2022-09-23T12:07:14.714Z,0.90
2022-09-23T12:10:05.693Z,2.08
2022-09-23T12:13:05.023Z,2.10
2022-09-23T12:16:09.992Z,3.42
2022-09-23T12:19:04.691Z,1.05
2022-09-23T12:21:52.325Z,1.17
2022-09-23T12:24:50.454Z,2.10
2022-09-23T12:27:39.542Z,1.23
2022-09-23T12:30:19.829Z,1.45
2022-09-23T12:32:51.573Z,2.45
2022-09-23T12:35:38.078Z,0.93
2022-09-23T12:38:22.901Z,1.53
2022-09-23T12:40:52.347Z,2.37
2022-09-23T12:43:34.858Z,1.23
2022-09-23T12:46:26.008Z,1.50
2022-09-23T12:48:57.386Z,1.10
2022-09-23T12:51:25.948Z,1.03
2022-09-23T12:54:01.310Z,2.27
2022-09-23T12:56:35.294Z,1.60
2022-09-23T12:59:12.216Z,1.47
2022-09-23T13:01:39.517Z,1.13
2022-09-23T13:04:24.937Z,1.33
2022-09-23T13:06:58.037Z,1.10
2022-09-23T13:09:33.368Z,1.17
2022-09-23T13:12:08.690Z,1.53
2022-09-23T13:14:36.500Z,4.93
2022-09-23T13:17:04.680Z,1.63
2022-09-23T13:19:36.594Z,1.20
2022-09-23T13:22:09.002Z,1.43
2022-09-23T13:24:54.406Z,2.60
2022-09-23T13:27:23.335Z,1.10
2022-09-23T13:30:14.793Z,2.27
2022-09-23T13:33:01.593Z,1.53
2022-09-23T13:35:38.028Z,2.57
2022-09-23T13:38:18.837Z,1.43
2022-09-23T13:40:47.124Z,2.27
2022-09-23T13:43:41.335Z,2.07
2022-09-23T13:46:20.287Z,1.20
2022-09-23T13:48:50.686Z,2.03
2022-09-23T13:51:34.931Z,1.70
2022-09-23T13:54:04.605Z,2.17
2022-09-23T13:56:33.935Z,1.00
2022-09-23T13:59:38.291Z,1.10
2022-09-23T14:02:11.563Z,1.30
2022-09-23T14:04:38.626Z,2.03
2022-09-23T14:07:08.030Z,1.13
2022-09-23T14:09:35.700Z,2.67
2022-09-23T14:12:06.019Z,2.80
2022-09-23T14:14:37.168Z,2.93
2022-09-23T14:17:06.308Z,2.47
2022-09-23T14:19:36.541Z,2.97
2022-09-23T14:22:03.965Z,2.03
2022-09-23T14:24:35.342Z,1.87
2022-09-23T14:27:15.981Z,2.90
2022-09-23T14:29:45.347Z,1.53
2022-09-23T14:32:17.755Z,2.07
2022-09-23T14:35:01.105Z,1.47
2022-09-23T14:37:55.626Z,2.00
2022-09-23T14:40:32.023Z,1.60
2022-09-23T14:43:03.841Z,1.57
2022-09-23T14:45:34.728Z,1.80
2022-09-23T14:48:17.448Z,2.90
2022-09-23T14:50:51.349Z,1.40
2022-09-23T14:53:24.446Z,2.07
2022-09-23T14:55:57.260Z,2.33
2022-09-23T14:58:28.797Z,1.50
2022-09-23T15:01:00.669Z,1.13
2022-09-23T15:03:29.387Z,1.70
2022-09-23T15:06:08.541Z,2.27
2022-09-23T15:08:36.993Z,2.80
2022-09-23T15:11:08.176Z,1.67
2022-09-23T15:13:46.743Z,1.43
2022-09-23T15:16:15.787Z,2.30
2022-09-23T15:18:46.250Z,2.10
2022-09-23T15:21:16.353Z,3.57
2022-09-23T15:23:56.132Z,1.70
2022-09-23T15:26:25.941Z,2.37
2022-09-23T15:28:55.961Z,3.50
2022-09-23T15:31:33.001Z,2.50
2022-09-23T15:33:59.911Z,3.20
2022-09-23T15:36:28.595Z,2.00
2022-09-23T15:38:57.268Z,1.83
2022-09-23T15:41:24.478Z,1.77
2022-09-23T15:43:54.965Z,1.83
2022-09-23T15:46:28.231Z,1.80
2022-09-23T15:49:08.582Z,4.40
2022-09-23T15:51:37.376Z,1.67
2022-09-23T15:54:08.950Z,1.93
2022-09-23T15:56:35.781Z,4.83
2022-09-23T15:59:02.607Z,3.17
2022-09-23T16:01:36.153Z,2.30
2022-09-23T16:04:04.507Z,2.30
2022-09-23T16:06:31.879Z,3.30
2022-09-23T16:08:58.698Z,3.20
2022-09-23T16:11:31.705Z,2.77
2022-09-23T16:14:00.711Z,3.13
2022-09-23T16:16:28.062Z,5.20
2022-09-23T16:18:55.398Z,2.70
2022-09-23T16:21:29.356Z,2.00
2022-09-23T16:23:59.312Z,2.37
2022-09-23T16:26:30.198Z,2.27
2022-09-23T16:28:58.521Z,4.90
2022-09-23T16:31:26.782Z,2.13
2022-09-23T16:33:54.029Z,3.80
2022-09-23T16:36:31.171Z,4.17
2022-09-23T16:39:00.234Z,1.87
2022-09-23T16:41:29.349Z,2.73
2022-09-23T16:43:56.396Z,2.47
2022-09-23T16:46:27.523Z,3.67
2022-09-23T16:48:56.232Z,2.10
2022-09-23T16:51:26.531Z,2.63
2022-09-23T16:53:55.385Z,2.30
2022-09-23T16:56:28.462Z,3.37
2022-09-23T16:58:56.408Z,3.03
2022-09-23T17:01:47.811Z,3.27
2022-09-23T17:04:16.650Z,3.43
2022-09-23T17:06:46.420Z,4.30
2022-09-23T17:09:23.661Z,4.37
2022-09-23T17:12:25.971Z,3.83
2022-09-23T17:14:53.337Z,3.50
2022-09-23T17:17:20.347Z,4.43
2022-09-23T17:19:47.255Z,4.93
2022-09-23T17:22:14.311Z,5.65
2022-09-23T17:24:41.177Z,5.10
2022-09-23T17:27:18.080Z,4.80
2022-09-23T17:29:45.083Z,7.43
2022-09-23T17:32:11.922Z,5.57
2022-09-23T17:34:39.509Z,5.10
2022-09-23T17:37:06.564Z,4.47
2022-09-23T17:39:33.513Z,4.43
2022-09-23T17:42:00.523Z,5.03
2022-09-23T17:44:27.401Z,3.67
2022-09-23T17:46:55.033Z,4.70
2022-09-23T17:49:24.221Z,5.23
2022-09-23T17:51:52.053Z,5.30
2022-09-23T17:54:18.992Z,5.30
2022-09-23T17:56:46.158Z,5.87
2022-09-23T17:59:13.345Z,4.95
2022-09-23T18:01:40.429Z,5.00
2022-09-23T18:04:07.619Z,5.40
2022-09-23T18:06:37.207Z,4.80
2022-09-23T18:09:06.879Z,5.37
2022-09-23T18:11:39.501Z,4.50
2022-09-23T18:14:14.147Z,7.30
2022-09-23T18:16:42.224Z,6.00
2022-09-23T18:19:12.656Z,6.60
2022-09-23T18:21:41.815Z,6.65
2022-09-23T18:24:31.435Z,6.63
2022-09-23T18:26:59.776Z,7.00
2022-09-23T18:29:27.465Z,7.68
2022-09-23T18:31:54.486Z,7.33
2022-09-23T18:34:22.810Z,8.97
2022-09-23T18:36:50.599Z,10.30
2022-09-23T18:39:17.546Z,10.57
2022-09-23T18:41:44.606Z,13.13
2022-09-23T18:44:11.892Z,12.83
2022-09-23T18:46:39.089Z,9.57
2022-09-23T18:49:24.557Z,11.63
2022-09-23T18:51:59.373Z,8.97
2022-09-23T18:54:29.070Z,8.70
2022-09-23T18:56:56.910Z,9.30
2022-09-23T18:59:28.107Z,10.57
2022-09-23T19:01:55.887Z,9.13
2022-09-23T19:04:24.820Z,9.97
2022-09-23T19:06:53.732Z,9.37
2022-09-23T19:09:20.793Z,9.73
2022-09-23T19:11:52.282Z,9.17
2022-09-23T19:14:19.841Z,9.00
2022-09-23T19:16:49.016Z,7.33
2022-09-23T19:19:16.691Z,7.87
2022-09-23T19:21:43.747Z,9.20
2022-09-23T19:24:14.541Z,6.70
2022-09-23T19:26:41.914Z,6.87
2022-09-23T19:29:14.465Z,5.07
2022-09-23T19:31:42.135Z,6.93
2022-09-23T19:34:23.970Z,8.40
2022-09-23T19:36:51.721Z,6.40
2022-09-23T19:39:24.419Z,4.93
2022-09-23T19:41:52.692Z,4.93
2022-09-23T19:44:20.329Z,3.33
2022-09-23T19:46:55.160Z,3.63
2022-09-23T19:49:24.796Z,4.10
2022-09-23T19:51:56.187Z,3.87
2022-09-23T19:54:24.708Z,3.30
2022-09-23T19:56:51.846Z,2.70
2022-09-23T19:59:19.564Z,4.13
2022-09-23T20:01:48.367Z,3.80
2022-09-23T20:04:16.277Z,5.83
2022-09-23T20:06:43.556Z,3.67
2022-09-23T20:09:10.504Z,2.70
2022-09-23T20:11:38.070Z,3.50
2022-09-23T20:14:06.412Z,3.73
2022-09-23T20:16:35.499Z,3.90
2022-09-23T20:19:04.734Z,3.60
2022-09-23T20:21:33.476Z,3.40
2022-09-23T20:24:01.139Z,4.60
2022-09-23T20:26:46.847Z,3.57
2022-09-23T20:29:13.701Z,4.13
2022-09-23T20:31:41.787Z,3.73
2022-09-23T20:34:10.812Z,3.27
2022-09-23T20:36:41.403Z,5.47
2022-09-23T20:39:10.191Z,3.50
2022-09-23T20:41:39.114Z,4.93
2022-09-23T20:44:11.655Z,5.83
2022-09-23T20:46:38.905Z,4.07
2022-09-23T20:49:07.925Z,3.97
2022-09-23T20:51:38.435Z,5.03
2022-09-23T20:54:05.470Z,3.47
2022-09-23T20:56:32.327Z,5.63
2022-09-23T20:59:04.215Z,3.83
2022-09-23T21:01:36.476Z,5.40
2022-09-23T21:04:05.743Z,4.70
2022-09-23T21:06:37.929Z,5.80
2022-09-23T21:09:06.275Z,4.67
2022-09-23T21:11:33.910Z,4.87
2022-09-23T21:14:02.267Z,5.77
2022-09-23T21:16:29.616Z,4.53
2022-09-23T21:18:56.633Z,6.17
2022-09-23T21:21:23.484Z,6.67
2022-09-23T21:23:51.484Z,5.70
2022-09-23T21:26:23.992Z,5.50
2022-09-23T21:28:57.858Z,7.13
2022-09-23T21:31:33.864Z,5.53
2022-09-23T21:34:07.265Z,5.50
2022-09-23T21:36:39.312Z,4.57
2022-09-23T21:39:08.121Z,5.83
2022-09-23T21:41:35.475Z,6.40
2022-09-23T21:44:04.609Z,4.50
2022-09-23T21:46:33.833Z,5.13
2022-09-23T21:49:03.661Z,5.83
2022-09-23T21:51:30.557Z,5.87
2022-09-23T21:53:58.338Z,6.30
2022-09-23T21:56:30.132Z,4.63
2022-09-23T21:58:58.530Z,5.87
2022-09-23T22:01:26.872Z,4.30
2022-09-23T22:03:59.545Z,5.37
2022-09-23T22:06:28.087Z,7.33
2022-09-23T22:08:59.885Z,5.37
2022-09-23T22:11:51.718Z,10.77
2022-09-23T22:14:20.680Z,17.87
2022-09-23T22:16:47.808Z,15.00
2022-09-23T22:19:15.635Z,16.80
2022-09-23T22:21:45.000Z,16.67
2022-09-23T22:24:12.645Z,16.70
2022-09-23T22:26:41.724Z,17.93
2022-09-23T22:29:29.809Z,21.87
2022-09-23T22:32:15.830Z,23.50
2022-09-23T22:34:51.581Z,22.20
2022-09-23T22:37:21.963Z,24.10
2022-09-23T22:39:48.790Z,25.23
2022-09-23T22:42:16.142Z,26.97
2022-09-23T22:44:43.125Z,27.03
2022-09-23T22:47:10.694Z,25.83
2022-09-23T22:49:37.662Z,26.30
2022-09-23T22:52:08.001Z,27.13
2022-09-23T22:54:35.597Z,30.13
2022-09-23T22:57:09.187Z,25.60
2022-09-23T22:59:37.457Z,25.60
2022-09-23T23:02:05.149Z,28.03
2022-09-23T23:04:32.302Z,24.33
2022-09-23T23:06:59.397Z,25.10
2022-09-23T23:09:26.500Z,28.97
2022-09-23T23:11:53.387Z,26.80
2022-09-23T23:14:20.481Z,28.30
2022-09-23T23:16:47.711Z,27.50
2022-09-23T23:19:17.154Z,26.57
2022-09-23T23:21:45.501Z,27.77
2022-09-23T23:24:23.618Z,32.20
2022-09-23T23:26:51.541Z,27.33
2022-09-23T23:29:20.662Z,27.77
2022-09-23T23:31:48.155Z,29.90
2022-09-23T23:34:20.577Z,31.00
2022-09-23T23:36:53.549Z,31.70
2022-09-23T23:39:23.718Z,30.93
2022-09-23T23:41:55.355Z,30.93
2022-09-23T23:44:26.663Z,29.53
2022-09-23T23:46:54.529Z,31.40
2022-09-23T23:49:22.075Z,32.27
2022-09-23T23:51:49.082Z,32.40
2022-09-23T23:54:16.335Z,34.07
2022-09-23T23:56:43.528Z,36.53
2022-09-23T23:59:10.601Z,34.13
